Indian Creek Settlement, Indiana
Current Conditions -  °F | °C
As of 12:55 PM on Friday 24 Oct 2014 (Local Time) from KDCY Reporting Station
Clear Clear  
Wind Chill: 65°   Ceiling: Unl
Heat Index: 65°   Visibility: 10mi
Dew Point: 47°   Wind: 5mph
Humidity: 54%   Direction: 240°WSW
Pressure: 30.08"   Gusts: NA
Location:  38.7736°N, 87.3306°W
Report Text: KDCY 241755Z AUTO 24004KT 10SM CLR 18/09 A3008 RMK AO2 T01810086 10181 20078
Loading
Personal Weather Stations






























Interactive Weather Map
Tropical Storm Tracking
New forecast layout! Learn more

10-Day Weather Forecast

Advertisements
Track Severe Weather on mobile